Time;durP1;ratioP1;P1;durP2;ratioP2;P2;SDS_P1;SDS_P2;PMS_P1;PMS_P2;Temp;Humidity;BMP_temperature;BMP_pressure;BME280_temperature;BME280_humidity;BME280_pressure;Samples;Min_cycle;Max_cycle;Signal;HPM_P1;HPM_P2
2021/06/07 00:02:00;;;;;;;3.50;3.03;;;15.80;81.60;;;;;;5050224;28;20049;-76
2021/06/07 00:04:28;;;;;;;5.43;3.03;;;15.70;81.20;;;;;;5032936;28;20052;-76
2021/06/07 00:06:55;;;;;;;3.10;2.90;;;15.80;84.70;;;;;;5045952;28;20049;-75
2021/06/07 00:09:22;;;;;;;3.40;2.95;;;15.80;85.70;;;;;;5053042;28;20049;-75
2021/06/07 00:11:52;;;;;;;4.07;2.88;;;15.70;84.00;;;;;;5052788;28;20045;-75
2021/06/07 00:14:20;;;;;;;3.97;3.10;;;15.70;84.00;;;;;;5043510;28;20045;-75
2021/06/07 00:16:46;;;;;;;2.92;2.70;;;15.60;84.30;;;;;;5049510;28;20048;-76
2021/06/07 00:19:16;;;;;;;3.58;3.05;;;15.50;84.90;;;;;;5053180;28;20048;-75
2021/06/07 00:21:42;;;;;;;3.40;3.05;;;15.50;86.70;;;;;;5052586;28;20036;-75
2021/06/07 00:24:09;;;;;;;3.33;3.03;;;15.50;87.60;;;;;;5052791;28;20047;-75
2021/06/07 00:26:37;;;;;;;2.70;2.50;;;15.40;87.60;;;;;;5056186;28;20049;-74
2021/06/07 00:29:04;;;;;;;3.22;2.80;;;15.30;89.10;;;;;;5055548;28;20060;-75
2021/06/07 00:31:30;;;;;;;2.83;2.63;;;15.30;90.10;;;;;;5056401;28;20115;-75
2021/06/07 00:33:57;;;;;;;6.13;4.05;;;15.20;91.00;;;;;;5051977;28;20045;-75
2021/06/07 00:36:23;;;;;;;13.30;6.55;;;15.20;92.00;;;;;;5035844;28;20076;-75
2021/06/07 00:38:49;;;;;;;20.25;10.20;;;15.20;92.30;;;;;;5041521;28;20090;-74
2021/06/07 00:41:16;;;;;;;6.57;5.30;;;15.10;92.70;;;;;;5055238;28;20052;-75
2021/06/07 00:43:45;;;;;;;4.10;3.75;;;15.10;92.90;;;;;;5040157;28;20045;-75
2021/06/07 00:46:23;;;;;;;5.80;3.30;;;15.10;94.00;;;;;;5054583;28;20049;-75
2021/06/07 00:49:04;;;;;;;3.28;2.97;;;15.10;95.50;;;;;;5051936;28;20042;-76
2021/06/07 00:51:30;;;;;;;6.00;4.82;;;15.00;96.20;;;;;;5035562;28;20049;-75
2021/06/07 00:53:56;;;;;;;4.90;3.55;;;15.00;97.70;;;;;;5051355;28;20056;-75
2021/06/07 00:56:22;;;;;;;5.55;4.40;;;15.10;98.20;;;;;;5055267;28;20122;-75
2021/06/07 00:58:50;;;;;;;6.95;3.60;;;15.00;98.90;;;;;;5055491;28;20119;-75
2021/06/07 01:01:19;;;;;;;8.18;4.80;;;14.90;99.50;;;;;;5048234;28;20076;-75
2021/06/07 01:03:49;;;;;;;7.82;4.90;;;14.80;99.90;;;;;;5040704;28;20488;-75
2021/06/07 01:06:15;;;;;;;4.80;4.22;;;14.70;99.90;;;;;;5042703;28;20124;-75
2021/06/07 01:08:42;;;;;;;8.80;4.68;;;14.70;99.90;;;;;;5055755;28;20041;-76
2021/06/07 01:11:08;;;;;;;4.00;3.65;;;14.70;99.90;;;;;;5055582;28;20112;-75
2021/06/07 01:13:35;;;;;;;12.35;7.30;;;14.60;99.90;;;;;;5051845;28;20045;-75
2021/06/07 01:16:04;;;;;;;24.10;13.10;;;14.50;99.90;;;;;;5055370;28;20102;-75
2021/06/07 01:18:31;;;;;;;15.48;10.50;;;14.40;99.90;;;;;;5055682;28;20056;-75
2021/06/07 01:20:59;;;;;;;4.43;3.40;;;14.40;99.90;;;;;;5055457;28;20075;-75
2021/06/07 01:23:27;;;;;;;10.95;8.35;;;14.40;99.90;;;;;;5055180;28;20041;-76
2021/06/07 01:25:55;;;;;;;46.33;26.10;;;14.30;99.90;;;;;;5043321;28;20045;-76
2021/06/07 01:28:21;;;;;;;24.05;13.18;;;14.30;99.90;;;;;;5055272;28;20048;-76
2021/06/07 01:30:50;;;;;;;13.13;7.28;;;14.40;99.90;;;;;;5055310;28;20475;-76
2021/06/07 01:33:19;;;;;;;26.60;13.23;;;14.30;99.90;;;;;;5055512;28;20037;-75
2021/06/07 01:35:45;;;;;;;27.55;13.88;;;14.20;99.90;;;;;;5055131;28;20052;-75
2021/06/07 01:38:12;;;;;;;55.67;29.35;;;14.20;99.90;;;;;;5052490;28;20483;-75
2021/06/07 01:40:42;;;;;;;36.72;19.63;;;14.20;99.90;;;;;;5048724;28;20049;-75
2021/06/07 01:43:09;;;;;;;14.07;9.55;;;14.20;99.90;;;;;;5035779;28;20099;-76
2021/06/07 01:45:36;;;;;;;4.13;3.72;;;14.20;99.90;;;;;;5054711;28;20099;-76
2021/06/07 01:48:06;;;;;;;4.15;3.75;;;14.20;99.90;;;;;;5055023;28;20045;-76
2021/06/07 01:50:32;;;;;;;4.05;3.65;;;14.10;99.90;;;;;;5054700;28;20041;-76
2021/06/07 01:52:58;;;;;;;7.65;5.95;;;14.00;99.90;;;;;;5051048;28;20045;-76
2021/06/07 01:55:28;;;;;;;3.97;3.50;;;14.00;99.90;;;;;;5054515;28;20488;-76
2021/06/07 01:57:55;;;;;;;7.03;5.28;;;13.90;99.90;;;;;;5052995;28;20037;-76
2021/06/07 02:00:25;;;;;;;14.13;8.35;;;13.90;99.90;;;;;;5054721;28;20045;-76
2021/06/07 02:02:51;;;;;;;7.85;6.03;;;13.80;99.90;;;;;;5055233;28;20041;-72
2021/06/07 02:05:20;;;;;;;8.23;5.47;;;13.80;99.90;;;;;;5053766;28;20459;-72
2021/06/07 02:07:47;;;;;;;11.90;8.25;;;13.80;99.90;;;;;;5043233;28;20091;-71
2021/06/07 02:10:14;;;;;;;48.72;26.63;;;13.70;99.90;;;;;;5052908;28;20060;-74
2021/06/07 02:12:40;;;;;;;5.60;5.00;;;13.70;99.90;;;;;;5052293;28;20045;-71
2021/06/07 02:15:09;;;;;;;13.13;9.05;;;13.70;99.90;;;;;;5039140;28;20119;-72
2021/06/07 02:17:36;;;;;;;15.45;8.75;;;13.60;99.90;;;;;;5032684;28;20414;-72
2021/06/07 02:20:04;;;;;;;18.67;11.40;;;13.60;99.90;;;;;;5037732;28;20045;-72
2021/06/07 02:22:34;;;;;;;25.17;14.80;;;13.60;99.90;;;;;;5053927;28;20052;-72
2021/06/07 02:25:00;;;;;;;14.45;11.00;;;13.60;99.90;;;;;;5054751;28;20108;-71
2021/06/07 02:27:26;;;;;;;52.53;27.08;;;13.50;99.90;;;;;;5034988;28;20504;-71
2021/06/07 02:29:52;;;;;;;42.90;21.75;;;13.50;99.90;;;;;;5049294;28;20045;-70
2021/06/07 02:32:20;;;;;;;24.27;15.73;;;13.60;99.90;;;;;;5054512;28;20101;-71
2021/06/07 02:34:46;;;;;;;27.25;17.08;;;13.60;99.90;;;;;;5054266;28;20052;-71
2021/06/07 02:37:12;;;;;;;35.75;21.50;;;13.60;99.90;;;;;;5053671;28;20075;-71
2021/06/07 02:39:38;;;;;;;37.47;22.10;;;13.60;99.90;;;;;;5036654;28;20485;-71
2021/06/07 02:42:06;;;;;;;29.83;18.02;;;13.60;99.90;;;;;;5045186;28;20075;-69
2021/06/07 02:44:32;;;;;;;25.05;15.20;;;13.50;99.90;;;;;;5053749;28;20045;-72
2021/06/07 02:46:58;;;;;;;8.50;5.30;;;13.40;99.90;;;;;;5052733;28;20051;-72
2021/06/07 02:49:25;;;;;;;21.95;13.20;;;13.40;99.90;;;;;;5052730;28;20044;-72
2021/06/07 02:51:52;;;;;;;5.05;4.40;;;13.40;99.90;;;;;;5053066;28;20049;-72
2021/06/07 02:54:18;;;;;;;9.75;6.53;;;13.30;99.90;;;;;;5045632;28;20071;-71
2021/06/07 02:56:44;;;;;;;18.42;11.98;;;13.20;99.90;;;;;;5032921;28;20358;-72
2021/06/07 02:59:10;;;;;;;14.38;9.00;;;13.20;99.90;;;;;;5033317;28;20042;-72
2021/06/07 03:01:36;;;;;;;35.97;20.58;;;13.20;99.90;;;;;;5033009;28;20213;-73
2021/06/07 03:04:02;;;;;;;18.27;12.60;;;13.30;99.90;;;;;;5033043;28;20049;-73
2021/06/07 03:06:30;;;;;;;17.23;11.23;;;13.30;99.90;;;;;;5032968;28;20460;-72
2021/06/07 03:08:56;;;;;;;10.88;7.90;;;13.40;99.90;;;;;;5032971;28;20049;-72
2021/06/07 03:11:22;;;;;;;11.45;7.35;;;13.50;99.90;;;;;;5032819;28;20056;-73
2021/06/07 03:13:48;;;;;;;14.68;9.55;;;13.60;99.90;;;;;;5033039;28;20095;-72
2021/06/07 03:16:14;;;;;;;14.63;8.70;;;13.50;99.90;;;;;;5032726;28;20060;-73
2021/06/07 03:18:42;;;;;;;9.05;6.38;;;13.50;99.90;;;;;;5032947;28;20049;-72
2021/06/07 03:21:08;;;;;;;9.40;6.30;;;13.50;99.90;;;;;;5032658;28;20053;-72
2021/06/07 03:23:38;;;;;;;14.68;7.55;;;13.50;99.90;;;;;;5032598;28;20049;-72
2021/06/07 03:26:05;;;;;;;6.85;5.93;;;13.60;99.90;;;;;;5032252;28;20052;-72
2021/06/07 03:28:31;;;;;;;9.20;5.50;;;13.70;99.90;;;;;;5032731;28;20093;-72
2021/06/07 03:31:00;;;;;;;6.78;6.13;;;13.70;99.90;;;;;;5032879;28;20050;-72
2021/06/07 03:33:27;;;;;;;9.57;6.95;;;13.70;99.90;;;;;;5033044;28;20087;-72
2021/06/07 03:35:55;;;;;;;4.15;3.75;;;13.80;99.90;;;;;;5032905;28;20073;-72
2021/06/07 03:38:21;;;;;;;7.25;4.25;;;13.70;99.90;;;;;;5032811;28;20099;-72
2021/06/07 03:40:53;;;;;;;9.82;5.55;;;13.70;99.90;;;;;;5032912;28;20099;-72
2021/06/07 03:43:22;;;;;;;5.97;4.35;;;13.70;99.90;;;;;;5033210;28;20140;-72
2021/06/07 03:45:48;;;;;;;5.60;4.95;;;13.70;99.90;;;;;;5033064;28;20045;-72
2021/06/07 03:48:14;;;;;;;7.03;4.57;;;13.70;99.90;;;;;;5033244;28;20041;-72
2021/06/07 03:50:41;;;;;;;6.63;5.10;;;13.70;99.90;;;;;;5033107;28;20056;-72
2021/06/07 03:53:09;;;;;;;5.55;4.97;;;13.70;99.90;;;;;;5032649;28;20045;-72
2021/06/07 03:55:36;;;;;;;8.40;4.63;;;13.70;99.90;;;;;;5032627;28;20072;-72
2021/06/07 03:58:04;;;;;;;8.38;5.38;;;13.80;99.90;;;;;;5032860;28;20056;-72
2021/06/07 04:00:33;;;;;;;5.15;4.65;;;13.80;99.90;;;;;;5035760;28;20045;-72
2021/06/07 04:02:59;;;;;;;6.03;4.93;;;13.90;99.90;;;;;;5036818;28;20381;-72
2021/06/07 04:05:26;;;;;;;7.00;4.85;;;14.00;99.90;;;;;;5036277;28;20099;-72
2021/06/07 04:07:52;;;;;;;4.93;4.28;;;14.00;99.90;;;;;;5037030;28;20049;-72
2021/06/07 04:10:23;;;;;;;5.53;4.63;;;14.10;99.90;;;;;;5036155;28;20048;-73
2021/06/07 04:12:51;;;;;;;8.57;4.75;;;14.20;99.90;;;;;;5044193;28;20049;-73
2021/06/07 04:15:20;;;;;;;7.60;4.68;;;14.20;99.90;;;;;;5056542;28;20087;-73
2021/06/07 04:17:47;;;;;;;8.77;4.75;;;14.40;99.90;;;;;;5056269;28;20461;-71
2021/06/07 04:20:16;;;;;;;5.13;4.38;;;14.50;99.90;;;;;;5056304;28;20049;-72
2021/06/07 04:22:43;;;;;;;5.55;4.35;;;14.50;99.90;;;;;;5056029;28;20412;-72
2021/06/07 04:25:11;;;;;;;6.25;5.10;;;14.60;99.90;;;;;;5056536;28;20113;-74
2021/06/07 04:27:38;;;;;;;7.82;5.22;;;14.60;99.90;;;;;;5056226;28;20052;-72
2021/06/07 04:30:06;;;;;;;31.30;17.23;;;14.80;99.90;;;;;;5056461;28;20056;-72
2021/06/07 04:32:34;;;;;;;30.38;18.50;;;15.00;99.90;;;;;;5056424;28;20048;-72
2021/06/07 04:35:01;;;;;;;6.47;5.85;;;15.00;99.90;;;;;;5056595;28;20045;-72
2021/06/07 04:37:27;;;;;;;15.32;12.00;;;15.10;99.90;;;;;;5055270;28;20063;-73
2021/06/07 04:39:53;;;;;;;31.90;18.35;;;15.20;99.90;;;;;;5055972;28;20045;-71
2021/06/07 04:42:19;;;;;;;14.73;10.25;;;15.30;99.90;;;;;;5055843;28;20512;-74
2021/06/07 04:44:45;;;;;;;34.00;19.90;;;15.30;99.90;;;;;;5056228;28;20049;-73
2021/06/07 04:47:11;;;;;;;20.90;12.68;;;15.40;99.90;;;;;;5055256;28;20106;-73
2021/06/07 04:49:39;;;;;;;18.73;11.27;;;15.50;99.90;;;;;;5055614;28;20044;-73
2021/06/07 04:52:06;;;;;;;13.88;8.35;;;15.60;99.90;;;;;;5055926;28;20053;-73
2021/06/07 04:54:32;;;;;;;13.93;8.27;;;15.70;99.90;;;;;;5047249;28;20092;-72
2021/06/07 04:57:00;;;;;;;13.98;8.98;;;15.70;99.90;;;;;;5035279;28;20050;-72
2021/06/07 04:59:26;;;;;;;31.13;17.38;;;15.80;99.90;;;;;;5035357;28;20052;-72
2021/06/07 05:01:52;;;;;;;16.13;10.57;;;15.90;99.90;;;;;;5035611;28;20123;-72
2021/06/07 05:04:18;;;;;;;22.85;13.73;;;16.00;99.90;;;;;;5034557;28;20061;-72
2021/06/07 05:06:46;;;;;;;14.27;9.65;;;16.10;99.90;;;;;;5034509;28;20050;-73
2021/06/07 05:09:12;;;;;;;8.43;6.53;;;16.10;99.90;;;;;;5034542;28;20041;-72
2021/06/07 05:11:41;;;;;;;8.50;6.07;;;16.20;99.90;;;;;;5033521;28;20570;-73
2021/06/07 05:14:07;;;;;;;8.93;6.85;;;16.20;99.90;;;;;;5034494;28;20073;-73
2021/06/07 05:16:33;;;;;;;9.45;5.30;;;16.30;99.90;;;;;;5034159;28;20046;-75
2021/06/07 05:18:59;;;;;;;18.38;13.48;;;16.50;99.90;;;;;;5034698;28;20045;-73
2021/06/07 05:21:26;;;;;;;6.85;6.03;;;16.50;99.90;;;;;;5034527;28;20490;-72
2021/06/07 05:23:53;;;;;;;12.25;6.97;;;16.60;99.90;;;;;;5035063;28;20456;-72
2021/06/07 05:26:19;;;;;;;14.65;9.95;;;16.80;99.90;;;;;;5034185;28;20063;-72
2021/06/07 05:28:46;;;;;;;28.63;15.98;;;17.00;99.90;;;;;;5035690;28;20053;-72
2021/06/07 05:31:12;;;;;;;7.72;5.68;;;17.00;99.90;;;;;;5034080;28;20050;-74
2021/06/07 05:33:38;;;;;;;8.57;6.32;;;17.00;99.90;;;;;;5034124;28;20049;-73
2021/06/07 05:36:05;;;;;;;8.77;6.00;;;17.10;99.90;;;;;;5034211;28;20056;-72
2021/06/07 05:38:32;;;;;;;6.68;5.25;;;17.30;99.90;;;;;;5033882;28;20524;-73
2021/06/07 05:40:59;;;;;;;16.05;9.07;;;17.40;99.90;;;;;;5034258;28;20103;-72
2021/06/07 05:43:25;;;;;;;11.80;8.45;;;17.50;99.90;;;;;;5033725;28;20494;-73
2021/06/07 05:45:53;;;;;;;13.32;8.15;;;17.60;99.90;;;;;;5033942;28;20045;-73
2021/06/07 05:48:19;;;;;;;7.95;5.80;;;17.70;99.90;;;;;;5034024;28;20073;-73
2021/06/07 05:50:46;;;;;;;8.75;6.00;;;17.90;99.90;;;;;;5034166;28;20103;-73
2021/06/07 05:53:14;;;;;;;25.35;16.38;;;18.00;99.90;;;;;;5034320;28;20045;-72
2021/06/07 05:55:42;;;;;;;7.97;5.28;;;18.10;99.90;;;;;;5053383;28;20053;-73
2021/06/07 05:58:12;;;;;;;5.00;4.28;;;18.30;99.90;;;;;;5053652;28;20420;-73
2021/06/07 06:00:40;;;;;;;15.30;10.93;;;18.60;99.90;;;;;;5053642;28;20501;-73
2021/06/07 06:03:06;;;;;;;9.35;7.85;;;18.90;99.90;;;;;;5054067;28;20049;-73
2021/06/07 06:05:33;;;;;;;9.82;7.85;;;19.30;99.90;;;;;;5053349;28;20091;-73
2021/06/07 06:07:59;;;;;;;11.35;8.63;;;19.60;99.90;;;;;;5053343;28;20075;-72
2021/06/07 06:10:25;;;;;;;11.25;8.52;;;19.80;99.90;;;;;;5053191;28;20052;-74
2021/06/07 06:12:52;;;;;;;14.20;9.50;;;20.10;99.60;;;;;;5053509;28;20126;-74
2021/06/07 06:15:21;;;;;;;20.23;12.02;;;20.30;98.70;;;;;;5053059;28;20045;-73
2021/06/07 06:17:48;;;;;;;7.75;6.20;;;20.60;98.60;;;;;;5053567;28;20048;-72
2021/06/07 06:20:15;;;;;;;7.70;5.78;;;21.00;97.10;;;;;;5053003;28;20437;-72
2021/06/07 06:22:42;;;;;;;18.65;11.40;;;21.10;95.30;;;;;;5053200;28;20060;-73
2021/06/07 06:25:13;;;;;;;26.40;16.58;;;21.30;94.70;;;;;;5053161;28;20459;-73
2021/06/07 06:27:41;;;;;;;4.38;3.67;;;21.50;94.20;;;;;;5052400;28;20060;-74
2021/06/07 06:30:15;;;;;;;10.90;6.47;;;21.40;92.30;;;;;;5053143;28;20041;-73
2021/06/07 06:32:43;;;;;;;8.52;6.13;;;21.80;93.50;;;;;;5052759;28;20059;-73
2021/06/07 06:35:11;;;;;;;6.22;5.38;;;21.90;92.20;;;;;;5052966;28;20041;-73
2021/06/07 06:37:38;;;;;;;10.82;7.00;;;22.30;91.20;;;;;;5052249;28;20512;-73
2021/06/07 06:40:06;;;;;;;6.38;5.18;;;22.50;91.20;;;;;;5052822;28;20048;-72
2021/06/07 06:42:35;;;;;;;9.35;5.07;;;22.50;90.00;;;;;;5052715;28;20499;-73
2021/06/07 06:45:01;;;;;;;4.97;3.80;;;22.80;89.10;;;;;;5052871;28;20650;-73
2021/06/07 06:47:27;;;;;;;4.97;4.55;;;22.90;87.00;;;;;;5052462;28;20114;-73
2021/06/07 06:49:55;;;;;;;5.38;4.88;;;22.80;84.50;;;;;;5052611;28;20045;-72
2021/06/07 06:52:21;;;;;;;4.32;3.88;;;22.90;86.00;;;;;;5053339;28;20049;-72
2021/06/07 06:54:47;;;;;;;8.85;5.65;;;23.40;82.00;;;;;;5052155;28;20107;-73
2021/06/07 06:57:13;;;;;;;11.73;7.88;;;23.60;80.10;;;;;;5051983;28;20489;-73
2021/06/07 06:59:39;;;;;;;5.00;4.00;;;24.20;77.80;;;;;;5052384;28;20044;-72
2021/06/07 07:02:05;;;;;;;7.13;5.20;;;24.40;77.30;;;;;;5052447;28;20063;-72
2021/06/07 07:04:31;;;;;;;4.38;3.28;;;25.00;74.00;;;;;;5052482;28;20045;-73
2021/06/07 07:06:59;;;;;;;6.95;4.95;;;25.20;71.90;;;;;;5053618;28;20044;-73
2021/06/07 07:09:25;;;;;;;3.45;3.25;;;25.30;71.50;;;;;;5052448;28;20477;-73
2021/06/07 07:11:51;;;;;;;4.10;3.22;;;25.10;70.00;;;;;;5052015;28;20099;-73
2021/06/07 07:14:17;;;;;;;6.68;5.28;;;25.30;71.70;;;;;;5052459;28;20045;-72
2021/06/07 07:16:43;;;;;;;4.45;3.42;;;25.80;68.80;;;;;;5052170;28;20064;-72
2021/06/07 07:19:09;;;;;;;7.72;6.30;;;26.00;68.30;;;;;;5051991;28;20041;-72
2021/06/07 07:21:35;;;;;;;3.78;3.33;;;25.90;65.00;;;;;;5052026;28;20068;-73
2021/06/07 07:24:03;;;;;;;5.32;4.93;;;26.00;66.00;;;;;;5052245;28;20048;-73
2021/06/07 07:26:29;;;;;;;5.60;4.60;;;26.00;67.10;;;;;;5052096;28;20082;-73
2021/06/07 07:28:56;;;;;;;8.93;6.30;;;26.40;63.90;;;;;;5052257;28;20053;-73
2021/06/07 07:31:22;;;;;;;7.00;5.10;;;26.80;62.90;;;;;;5052273;28;20052;-73
2021/06/07 07:33:49;;;;;;;6.88;4.57;;;26.90;62.00;;;;;;5051867;28;20045;-73
2021/06/07 07:36:16;;;;;;;5.88;4.28;;;27.00;62.00;;;;;;5051685;28;20053;-72
2021/06/07 07:38:42;;;;;;;4.60;4.20;;;27.20;60.50;;;;;;5051620;28;20190;-73
2021/06/07 07:41:11;;;;;;;5.97;3.67;;;27.50;59.50;;;;;;5052299;28;20045;-72
2021/06/07 07:43:37;;;;;;;5.20;4.05;;;27.70;58.40;;;;;;5051990;28;20041;-72
2021/06/07 07:46:04;;;;;;;3.25;2.95;;;27.60;56.60;;;;;;5051791;28;20044;-72
2021/06/07 07:48:30;;;;;;;4.72;4.30;;;27.50;56.20;;;;;;5051552;28;20049;-72
2021/06/07 07:50:56;;;;;;;8.45;5.18;;;27.60;56.90;;;;;;5052068;28;20044;-72
2021/06/07 07:53:24;;;;;;;5.05;3.75;;;27.80;56.30;;;;;;5051877;28;20049;-72
2021/06/07 07:55:52;;;;;;;9.95;3.58;;;27.60;56.50;;;;;;5051533;28;20401;-72
2021/06/07 07:58:20;;;;;;;6.47;2.92;;;27.80;56.20;;;;;;5051965;28;20049;-72
2021/06/07 08:00:47;;;;;;;6.28;5.22;;;28.20;54.10;;;;;;5051738;28;20103;-72
2021/06/07 08:03:14;;;;;;;3.83;3.30;;;28.50;54.40;;;;;;5051810;28;20041;-72
2021/06/07 08:05:40;;;;;;;6.15;3.47;;;28.60;53.90;;;;;;5051507;28;20045;-72
2021/06/07 08:08:06;;;;;;;4.07;3.08;;;28.80;53.90;;;;;;5051965;28;20076;-72
2021/06/07 08:10:33;;;;;;;4.95;3.67;;;29.20;53.10;;;;;;5051962;28;20099;-72
2021/06/07 08:12:59;;;;;;;4.55;3.10;;;29.10;52.20;;;;;;5052032;28;20052;-72
2021/06/07 08:15:27;;;;;;;5.88;5.18;;;29.20;51.80;;;;;;5051711;28;20056;-73
2021/06/07 08:17:53;;;;;;;4.60;3.45;;;29.40;52.70;;;;;;5051608;28;20052;-73
2021/06/07 08:20:20;;;;;;;3.85;2.72;;;29.70;50.60;;;;;;5051687;28;20045;-73
2021/06/07 08:22:49;;;;;;;4.05;3.47;;;29.70;49.40;;;;;;5052028;28;20045;-73
2021/06/07 08:25:16;;;;;;;3.95;3.20;;;29.90;50.40;;;;;;5051905;28;20049;-73
2021/06/07 08:27:43;;;;;;;4.35;3.35;;;29.60;50.60;;;;;;5051406;28;20052;-73
2021/06/07 08:30:10;;;;;;;5.70;3.28;;;29.80;49.70;;;;;;5051847;28;20049;-72
2021/06/07 08:32:38;;;;;;;6.72;3.08;;;30.10;49.80;;;;;;5051382;28;20049;-73
2021/06/07 08:35:07;;;;;;;4.50;3.58;;;30.70;48.60;;;;;;5051911;28;20052;-73
2021/06/07 08:37:33;;;;;;;5.38;3.70;;;30.90;48.20;;;;;;5051434;28;20045;-73
2021/06/07 08:39:59;;;;;;;3.47;2.70;;;30.80;46.80;;;;;;5051641;28;20057;-73
2021/06/07 08:42:27;;;;;;;3.13;2.92;;;30.90;45.90;;;;;;5051827;28;20048;-73
2021/06/07 08:44:53;;;;;;;5.07;4.65;;;31.10;46.00;;;;;;5051340;28;20469;-73
2021/06/07 08:47:20;;;;;;;6.15;3.72;;;31.10;46.10;;;;;;5053069;28;20110;-73
2021/06/07 08:49:47;;;;;;;5.57;3.90;;;31.40;46.30;;;;;;5055138;28;20459;-72
2021/06/07 08:52:15;;;;;;;4.28;3.00;;;31.10;45.40;;;;;;5055530;28;20045;-73
2021/06/07 08:54:41;;;;;;;5.28;3.13;;;31.30;46.30;;;;;;5055138;28;20099;-73
2021/06/07 08:57:07;;;;;;;10.32;3.10;;;31.30;45.50;;;;;;5055109;28;20049;-72
2021/06/07 08:59:33;;;;;;;3.40;2.90;;;31.70;45.70;;;;;;5054768;28;20045;-73
2021/06/07 09:02:01;;;;;;;4.68;4.28;;;31.80;44.10;;;;;;5055090;28;20060;-72
2021/06/07 09:04:27;;;;;;;3.78;3.47;;;32.50;44.80;;;;;;5055147;28;20045;-72
2021/06/07 09:06:55;;;;;;;4.50;4.00;;;32.40;44.00;;;;;;5054071;28;20611;-73
2021/06/07 09:09:24;;;;;;;4.93;4.43;;;32.20;43.70;;;;;;5054398;28;20424;-73
2021/06/07 09:11:57;;;;;;;3.88;3.58;;;32.20;43.40;;;;;;5054396;28;20052;-73
2021/06/07 09:14:25;;;;;;;4.85;4.32;;;32.50;44.00;;;;;;5054563;28;20048;-73
2021/06/07 09:16:52;;;;;;;4.32;3.95;;;32.90;43.20;;;;;;5054414;28;20049;-73
2021/06/07 09:19:21;;;;;;;10.80;7.47;;;33.20;42.40;;;;;;5054667;28;20045;-73
2021/06/07 09:21:47;;;;;;;4.13;3.03;;;33.60;42.00;;;;;;5054303;28;20102;-73
2021/06/07 09:24:16;;;;;;;9.35;8.23;;;33.50;41.10;;;;;;5054402;28;20045;-72
2021/06/07 09:26:44;;;;;;;4.80;3.58;;;33.30;42.20;;;;;;5053810;28;20099;-73
2021/06/07 09:29:14;;;;;;;6.90;6.18;;;33.30;41.90;;;;;;5053997;28;20140;-73
2021/06/07 09:31:43;;;;;;;5.70;4.15;;;33.80;41.20;;;;;;5054483;28;20106;-74
2021/06/07 09:34:10;;;;;;;15.80;9.43;;;33.70;41.60;;;;;;5054210;28;20056;-72
2021/06/07 09:36:37;;;;;;;5.60;5.00;;;33.90;42.10;;;;;;5053981;28;20049;-73
2021/06/07 09:39:12;;;;;;;8.25;5.95;;;34.10;40.40;;;;;;5053965;28;20044;-72
2021/06/07 09:41:57;;;;;;;4.80;4.40;;;34.00;40.90;;;;;;5054092;28;20056;-73
2021/06/07 09:44:38;;;;;;;7.03;6.13;;;34.10;41.00;;;;;;5053600;28;20512;-73
2021/06/07 09:47:20;;;;;;;5.55;4.15;;;34.30;40.10;;;;;;5053638;28;20064;-73
2021/06/07 09:49:50;;;;;;;4.50;4.10;;;34.60;40.80;;;;;;5053235;28;20049;-74
2021/06/07 09:52:27;;;;;;;7.13;6.20;;;34.50;41.10;;;;;;5054249;28;20366;-72
2021/06/07 09:55:10;;;;;;;11.40;7.68;;;35.10;39.10;;;;;;5053830;28;20049;-73
2021/06/07 09:57:48;;;;;;;3.60;3.30;;;34.90;39.30;;;;;;5053382;28;20136;-73
2021/06/07 10:00:34;;;;;;;5.97;4.72;;;35.20;38.70;;;;;;5053509;28;20488;-75
2021/06/07 10:03:18;;;;;;;4.90;3.53;;;35.30;37.90;;;;;;5053792;28;20060;-73
2021/06/07 10:05:44;;;;;;;6.32;5.72;;;35.00;37.30;;;;;;5053533;28;20045;-73
2021/06/07 10:08:11;;;;;;;5.88;4.00;;;34.60;37.90;;;;;;5053646;28;20049;-72
2021/06/07 10:10:37;;;;;;;6.60;3.60;;;35.10;37.30;;;;;;5053343;28;20045;-73
2021/06/07 10:13:05;;;;;;;10.88;8.85;;;35.60;36.40;;;;;;5053891;28;20378;-74
2021/06/07 10:15:35;;;;;;;6.60;4.95;;;35.80;36.40;;;;;;5053579;28;20457;-73
2021/06/07 10:18:02;;;;;;;6.63;4.90;;;35.60;36.20;;;;;;5053386;28;20068;-73
2021/06/07 10:20:49;;;;;;;5.35;4.78;;;34.80;35.90;;;;;;5053396;28;20052;-74
2021/06/07 10:23:18;;;;;;;2.65;2.55;;;34.40;39.20;;;;;;5053389;28;20049;-73
2021/06/07 10:25:44;;;;;;;2.95;2.75;;;35.20;36.50;;;;;;5053327;28;20048;-73
2021/06/07 10:28:12;;;;;;;6.18;5.68;;;35.70;35.20;;;;;;5053029;28;20408;-73
2021/06/07 10:30:40;;;;;;;3.60;2.95;;;35.10;35.90;;;;;;5053262;28;20610;-73
2021/06/07 10:33:26;;;;;;;6.90;6.25;;;35.70;35.50;;;;;;5052973;28;20052;-73
2021/06/07 10:35:53;;;;;;;5.10;3.65;;;36.10;34.90;;;;;;5052981;28;20075;-74
2021/06/07 10:38:31;;;;;;;2.88;2.65;;;36.30;35.10;;;;;;5052676;28;20570;-74
2021/06/07 10:41:17;;;;;;;3.35;2.65;;;36.40;34.30;;;;;;5053007;28;20040;-74
2021/06/07 10:43:46;;;;;;;5.07;4.57;;;36.30;32.80;;;;;;5052733;28;20044;-73
2021/06/07 10:46:24;;;;;;;5.22;4.72;;;36.60;33.90;;;;;;5052488;28;20049;-73
2021/06/07 10:48:51;;;;;;;4.45;4.15;;;36.60;34.90;;;;;;5052308;28;20041;-73
2021/06/07 10:51:18;;;;;;;6.57;4.28;;;37.30;33.40;;;;;;5052251;28;20103;-74
2021/06/07 10:53:45;;;;;;;5.43;4.20;;;37.60;33.00;;;;;;5052908;28;20053;-73
2021/06/07 10:56:11;;;;;;;3.53;3.30;;;37.00;33.20;;;;;;5052413;28;20049;-73
2021/06/07 10:58:50;;;;;;;3.95;3.65;;;36.80;33.30;;;;;;5051835;28;20045;-73
2021/06/07 11:01:16;;;;;;;4.15;3.22;;;36.40;33.50;;;;;;5049662;28;20048;-73
2021/06/07 11:03:53;;;;;;;8.15;6.43;;;35.40;33.00;;;;;;5048566;28;20401;-72
2021/06/07 11:06:20;;;;;;;5.53;4.85;;;36.80;34.20;;;;;;5048819;28;20123;-72
2021/06/07 11:09:01;;;;;;;5.47;3.92;;;37.10;32.70;;;;;;5050680;28;20109;-73
2021/06/07 11:11:43;;;;;;;4.18;3.75;;;36.50;33.20;;;;;;5043654;28;20049;-74
2021/06/07 11:14:11;;;;;;;3.40;3.10;;;37.00;33.50;;;;;;5034675;28;20111;-72
2021/06/07 11:16:39;;;;;;;3.20;2.90;;;37.10;32.20;;;;;;5035723;28;20490;-73
2021/06/07 11:19:06;;;;;;;4.82;4.50;;;36.40;32.30;;;;;;5049112;28;20130;-72
2021/06/07 11:21:34;;;;;;;4.63;2.85;;;37.00;34.20;;;;;;5051884;28;20045;-72
2021/06/07 11:24:01;;;;;;;6.50;5.25;;;36.70;32.30;;;;;;5056636;28;20053;-73
2021/06/07 11:26:39;;;;;;;3.28;3.03;;;35.70;32.90;;;;;;5055341;28;20088;-72
2021/06/07 11:29:07;;;;;;;3.38;2.95;;;36.40;34.40;;;;;;5045944;28;20095;-72
2021/06/07 11:31:51;;;;;;;2.30;2.20;;;37.10;32.00;;;;;;5032844;28;20080;-72
2021/06/07 11:34:44;;;;;;;2.58;2.38;;;37.20;31.10;;;;;;5054017;28;20489;-72
2021/06/07 11:37:11;;;;;;;3.83;3.45;;;36.90;31.00;;;;;;5050993;28;20049;-73
2021/06/07 11:39:52;;;;;;;5.78;5.28;;;36.90;31.40;;;;;;5047481;28;20060;-72
2021/06/07 11:42:20;;;;;;;5.32;4.85;;;36.80;31.60;;;;;;5051545;28;20052;-71
2021/06/07 11:44:51;;;;;;;4.65;3.25;;;37.00;31.20;;;;;;5051459;28;20049;-72
2021/06/07 11:47:21;;;;;;;5.45;3.38;;;37.00;31.10;;;;;;5040491;28;20052;-73
2021/06/07 11:50:11;;;;;;;2.47;2.38;;;37.50;30.80;;;;;;5051558;28;20049;-73
2021/06/07 11:52:48;;;;;;;2.45;2.22;;;37.30;30.00;;;;;;5036704;28;20064;-73
2021/06/07 11:55:32;;;;;;;6.40;2.88;;;36.70;30.40;;;;;;5032134;28;20074;-73
2021/06/07 11:58:13;;;;;;;4.13;3.67;;;36.30;31.70;;;;;;5029766;28;20049;-72
2021/06/07 12:00:41;;;;;;;3.22;2.90;;;36.30;30.70;;;;;;5031802;28;20084;-71
2021/06/07 12:03:11;;;;;;;3.15;2.88;;;36.30;31.10;;;;;;5031949;28;20056;-72
2021/06/07 12:05:38;;;;;;;2.40;2.28;;;36.90;30.20;;;;;;5036795;28;20086;-72
2021/06/07 12:08:06;;;;;;;3.85;3.38;;;36.60;30.00;;;;;;5051526;28;20492;-72
2021/06/07 12:10:33;;;;;;;5.28;4.03;;;36.70;30.40;;;;;;5051640;28;20041;-73
2021/06/07 12:13:21;;;;;;;4.78;3.83;;;37.00;31.50;;;;;;5051818;28;20057;-71
2021/06/07 12:15:51;;;;;;;3.03;2.72;;;37.20;30.20;;;;;;5051681;28;20517;-72
2021/06/07 12:18:40;;;;;;;3.50;3.20;;;37.20;29.90;;;;;;5051333;28;20062;-73
2021/06/07 12:21:09;;;;;;;3.13;2.88;;;36.80;30.60;;;;;;5048181;28;20045;-72
2021/06/07 12:23:40;;;;;;;3.22;3.03;;;36.60;30.70;;;;;;5041431;28;20045;-73
2021/06/07 12:29:22;;;;;;;2.00;1.90;;;36.60;30.50;;;;;;5035335;28;20075;-72
2021/06/07 12:32:05;;;;;;;2.72;2.53;;;36.10;32.00;;;;;;5042563;28;20041;-72
2021/06/07 12:34:33;;;;;;;3.13;2.85;;;35.90;30.40;;;;;;5055676;28;20045;-73
2021/06/07 12:36:59;;;;;;;3.00;2.80;;;36.30;31.10;;;;;;5054727;28;20432;-72
2021/06/07 12:39:25;;;;;;;1.67;1.58;;;36.20;32.40;;;;;;5054687;28;20045;-73
2021/06/07 12:41:52;;;;;;;3.33;3.03;;;36.50;29.40;;;;;;5055458;28;20059;-73
2021/06/07 12:44:21;;;;;;;4.22;3.83;;;36.40;29.30;;;;;;5055165;28;20064;-73
2021/06/07 12:46:48;;;;;;;2.35;2.25;;;36.30;31.80;;;;;;5053932;28;20047;-73
2021/06/07 12:49:25;;;;;;;2.35;2.15;;;36.30;31.40;;;;;;5041874;28;20057;-72
2021/06/07 12:52:00;;;;;;;3.47;3.25;;;36.10;31.80;;;;;;5050255;28;20049;-73
2021/06/07 12:54:28;;;;;;;6.38;4.97;;;36.30;32.60;;;;;;5054807;28;20049;-72